Time;durP1;ratioP1;P1;durP2;ratioP2;P2;SDS_P1;SDS_P2;PMS_P1;PMS_P2;Temp;Humidity;BMP_temperature;BMP_pressure;BME280_temperature;BME280_humidity;BME280_pressure;Samples;Min_cycle;Max_cycle;Signal;HPM_P1;HPM_P2
2023/04/26 00:01:15;;;;;;;3.65;0.90;;;19.20;54.20;;;;;;5094087;28;20503;-70
2023/04/26 00:03:41;;;;;;;3.92;0.82;;;19.20;54.10;;;;;;5095326;28;20075;-70
2023/04/26 00:06:08;;;;;;;2.00;0.88;;;19.20;54.20;;;;;;5095026;28;20497;-70
2023/04/26 00:08:34;;;;;;;1.97;0.90;;;19.20;54.30;;;;;;5094559;28;20044;-70
2023/04/26 00:11:00;;;;;;;3.38;0.85;;;19.20;54.20;;;;;;5093903;28;20372;-70
2023/04/26 00:13:26;;;;;;;4.38;1.42;;;19.20;54.20;;;;;;5095090;28;20513;-70
2023/04/26 00:15:51;;;;;;;2.58;0.75;;;19.20;54.10;;;;;;5094261;28;20389;-70
2023/04/26 00:18:17;;;;;;;3.63;1.10;;;19.20;54.20;;;;;;5094799;28;20048;-71
2023/04/26 00:20:42;;;;;;;2.40;0.90;;;19.20;54.20;;;;;;5094108;28;20044;-70
2023/04/26 00:23:09;;;;;;;2.80;0.73;;;19.10;54.10;;;;;;5093709;28;20044;-70
2023/04/26 00:25:35;;;;;;;4.28;0.75;;;19.10;54.10;;;;;;5094043;28;20136;-70
2023/04/26 00:28:01;;;;;;;1.52;0.70;;;19.10;54.00;;;;;;5094566;28;20044;-70
2023/04/26 00:30:27;;;;;;;2.03;0.60;;;19.10;54.00;;;;;;5092588;28;20098;-70
2023/04/26 00:32:52;;;;;;;3.20;0.95;;;19.10;54.10;;;;;;5094769;28;20040;-71
2023/04/26 00:35:18;;;;;;;2.33;0.80;;;19.10;54.00;;;;;;5094582;28;20503;-70
2023/04/26 00:37:44;;;;;;;3.67;0.90;;;19.10;54.00;;;;;;5093891;28;20113;-71
2023/04/26 00:40:10;;;;;;;2.00;0.70;;;19.10;54.00;;;;;;5093978;28;20044;-71
2023/04/26 00:42:37;;;;;;;2.00;0.75;;;19.10;54.00;;;;;;5093763;28;20097;-70
2023/04/26 00:45:03;;;;;;;2.08;0.85;;;19.10;54.00;;;;;;5094235;28;20097;-70
2023/04/26 00:47:29;;;;;;;1.95;0.82;;;19.10;54.00;;;;;;5094322;28;20040;-70
2023/04/26 00:49:54;;;;;;;1.52;0.70;;;19.10;54.00;;;;;;5092336;28;20050;-70
2023/04/26 00:52:21;;;;;;;1.98;0.77;;;19.00;53.90;;;;;;5094119;28;20081;-70
2023/04/26 00:54:47;;;;;;;2.05;0.70;;;19.00;53.90;;;;;;5093295;28;20047;-70
2023/04/26 00:57:13;;;;;;;1.52;0.60;;;19.10;54.00;;;;;;5092137;28;20066;-70
2023/04/26 00:59:38;;;;;;;2.63;0.80;;;19.00;53.90;;;;;;5092759;28;20048;-70
2023/04/26 01:02:04;;;;;;;2.17;0.70;;;19.10;53.90;;;;;;5094050;28;20069;-71
2023/04/26 01:04:30;;;;;;;1.55;0.60;;;19.00;53.80;;;;;;5092131;28;20451;-70
2023/04/26 01:06:56;;;;;;;2.67;0.60;;;19.10;53.80;;;;;;5093781;28;20063;-70
2023/04/26 01:09:21;;;;;;;3.40;0.75;;;19.00;53.80;;;;;;5092848;28;20035;-70
2023/04/26 01:11:47;;;;;;;3.55;0.80;;;19.10;53.80;;;;;;5093485;28;20028;-70
2023/04/26 01:14:13;;;;;;;2.78;0.80;;;19.10;53.80;;;;;;5092579;28;20593;-70
2023/04/26 01:16:39;;;;;;;2.20;0.75;;;19.10;53.80;;;;;;5093280;28;20048;-70
2023/04/26 01:19:11;;;;;;;3.28;0.80;;;19.10;53.90;;;;;;5092547;28;20488;-70
2023/04/26 01:21:37;;;;;;;1.80;0.65;;;19.10;53.90;;;;;;5093330;28;20132;-70
2023/04/26 01:24:03;;;;;;;1.58;0.85;;;19.10;53.90;;;;;;5093180;28;20495;-70
2023/04/26 01:26:28;;;;;;;2.45;0.63;;;19.10;53.90;;;;;;5091549;28;20044;-70
2023/04/26 01:28:54;;;;;;;1.80;0.68;;;19.10;53.90;;;;;;5093527;28;20399;-70
2023/04/26 01:31:20;;;;;;;2.72;0.80;;;19.10;53.90;;;;;;5093648;28;20039;-70
2023/04/26 01:33:45;;;;;;;2.53;0.70;;;19.10;53.80;;;;;;5092532;28;20040;-70
2023/04/26 01:36:11;;;;;;;1.80;0.80;;;19.10;53.80;;;;;;5093111;28;20048;-70
2023/04/26 01:38:36;;;;;;;2.33;0.82;;;19.10;53.80;;;;;;5093646;28;20047;-70
2023/04/26 01:41:02;;;;;;;2.85;0.80;;;19.10;53.80;;;;;;5091106;28;20047;-71
2023/04/26 01:43:28;;;;;;;2.78;0.85;;;19.10;53.80;;;;;;5092662;28;20040;-70
2023/04/26 01:45:53;;;;;;;2.28;0.75;;;19.10;53.80;;;;;;5092644;28;20105;-70
2023/04/26 01:48:19;;;;;;;2.60;0.70;;;19.10;53.70;;;;;;5093167;28;20044;-70
2023/04/26 01:50:44;;;;;;;3.40;0.98;;;19.10;53.70;;;;;;5093284;28;20139;-71
2023/04/26 01:53:10;;;;;;;3.58;0.93;;;19.10;53.70;;;;;;5092312;28;20126;-71
2023/04/26 01:55:35;;;;;;;1.83;0.68;;;19.10;53.60;;;;;;5093010;28;20127;-70
2023/04/26 01:58:01;;;;;;;1.20;0.60;;;19.10;53.70;;;;;;5092775;28;20079;-70
2023/04/26 02:00:30;;;;;;;2.97;0.80;;;19.10;53.60;;;;;;5092275;28;20036;-70
2023/04/26 02:02:55;;;;;;;2.05;0.70;;;19.10;53.70;;;;;;5092939;28;20075;-71
2023/04/26 02:05:21;;;;;;;1.40;0.60;;;19.10;53.70;;;;;;5092519;28;20080;-70
2023/04/26 02:07:47;;;;;;;2.75;0.70;;;19.10;53.70;;;;;;5091513;28;20044;-70
2023/04/26 02:10:12;;;;;;;2.15;0.75;;;19.10;53.70;;;;;;5092545;28;20031;-70
2023/04/26 02:12:38;;;;;;;2.15;0.75;;;19.20;53.80;;;;;;5092750;28;20605;-71
2023/04/26 02:15:04;;;;;;;2.55;0.70;;;19.20;53.80;;;;;;5091591;28;20395;-70
2023/04/26 02:17:30;;;;;;;1.75;0.70;;;19.20;53.80;;;;;;5092763;28;20043;-71
2023/04/26 02:19:56;;;;;;;2.55;0.73;;;19.20;53.80;;;;;;5092457;28;20090;-70
2023/04/26 02:22:23;;;;;;;1.77;0.70;;;19.20;53.80;;;;;;5091886;28;20487;-70
2023/04/26 02:24:49;;;;;;;1.80;0.52;;;19.20;53.80;;;;;;5092661;28;20059;-71
2023/04/26 02:27:15;;;;;;;2.22;0.65;;;19.20;53.80;;;;;;5091776;28;20392;-71
2023/04/26 02:29:40;;;;;;;2.03;0.75;;;19.20;53.80;;;;;;5090709;28;20403;-71
2023/04/26 02:32:06;;;;;;;2.20;0.80;;;19.20;53.80;;;;;;5092591;28;20036;-71
2023/04/26 02:34:32;;;;;;;2.25;0.60;;;19.20;53.80;;;;;;5092564;28;20040;-71
2023/04/26 02:36:58;;;;;;;1.30;0.60;;;19.20;53.70;;;;;;5091849;28;20050;-71
2023/04/26 02:39:23;;;;;;;3.03;0.60;;;19.20;53.70;;;;;;5092689;28;20101;-71
2023/04/26 02:41:49;;;;;;;2.03;0.60;;;19.20;53.70;;;;;;5092529;28;20036;-71
2023/04/26 02:44:15;;;;;;;1.90;0.70;;;19.20;53.70;;;;;;5091787;28;20048;-71
2023/04/26 02:46:41;;;;;;;2.65;0.70;;;19.20;53.70;;;;;;5092566;28;20406;-71
2023/04/26 02:49:06;;;;;;;2.80;0.73;;;19.20;53.70;;;;;;5090910;28;20044;-71
2023/04/26 02:51:32;;;;;;;2.72;0.60;;;19.20;53.60;;;;;;5092358;28;20428;-71
2023/04/26 02:53:58;;;;;;;1.80;0.60;;;19.20;53.70;;;;;;5092083;28;20044;-71
2023/04/26 02:56:24;;;;;;;2.58;0.60;;;19.20;53.70;;;;;;5091852;28;20077;-71
2023/04/26 02:58:50;;;;;;;1.73;0.60;;;19.20;53.70;;;;;;5092343;28;20391;-71
2023/04/26 03:01:16;;;;;;;2.75;0.63;;;19.20;53.60;;;;;;5091041;28;20040;-71
2023/04/26 03:03:42;;;;;;;2.50;0.60;;;19.20;53.70;;;;;;5091496;28;20044;-72
2023/04/26 03:06:08;;;;;;;2.63;0.70;;;19.20;54.30;;;;;;5092261;28;20050;-71
2023/04/26 03:08:35;;;;;;;3.13;0.75;;;19.20;53.70;;;;;;5092654;28;20040;-71
2023/04/26 03:11:01;;;;;;;1.67;0.90;;;19.20;53.70;;;;;;5091546;28;20119;-71
2023/04/26 03:13:26;;;;;;;2.65;0.85;;;19.20;53.70;;;;;;5092503;28;20123;-71
2023/04/26 03:15:52;;;;;;;2.55;0.63;;;19.20;53.70;;;;;;5092123;28;20101;-71
2023/04/26 03:18:18;;;;;;;1.58;0.60;;;19.20;53.70;;;;;;5090849;28;20040;-71
2023/04/26 03:20:45;;;;;;;1.70;0.65;;;19.20;53.70;;;;;;5095224;28;20040;-71
2023/04/26 03:23:10;;;;;;;1.73;0.65;;;19.30;53.70;;;;;;5095983;28;20036;-71
2023/04/26 03:25:36;;;;;;;2.05;0.65;;;19.20;53.70;;;;;;5093771;28;20070;-71
2023/04/26 03:28:02;;;;;;;1.13;0.65;;;19.20;53.70;;;;;;5095570;28;20101;-71
2023/04/26 03:30:28;;;;;;;2.15;0.60;;;19.30;53.70;;;;;;5096065;28;20127;-71
2023/04/26 03:32:54;;;;;;;1.58;0.60;;;19.30;53.70;;;;;;5095275;28;20120;-71
2023/04/26 03:35:19;;;;;;;1.48;0.60;;;19.30;53.70;;;;;;5094821;28;20337;-71
2023/04/26 03:37:45;;;;;;;3.20;0.82;;;19.30;53.70;;;;;;5095575;28;20048;-71
2023/04/26 03:40:11;;;;;;;1.75;0.50;;;19.30;53.70;;;;;;5093320;28;20108;-71
2023/04/26 03:42:36;;;;;;;1.15;0.40;;;19.30;53.60;;;;;;5095763;28;20554;-71
2023/04/26 03:45:02;;;;;;;2.08;0.75;;;19.40;53.70;;;;;;5095370;28;20458;-71
2023/04/26 03:47:29;;;;;;;1.90;0.50;;;19.30;53.60;;;;;;5094999;28;20040;-71
2023/04/26 03:49:55;;;;;;;1.33;0.47;;;19.40;53.70;;;;;;5095304;28;20483;-71
2023/04/26 03:52:21;;;;;;;2.15;0.60;;;19.40;53.70;;;;;;5095706;28;20044;-71
2023/04/26 03:54:46;;;;;;;2.35;0.55;;;19.40;53.70;;;;;;5094996;28;20040;-71
2023/04/26 03:57:12;;;;;;;1.00;0.50;;;19.40;53.70;;;;;;5094930;28;20050;-71
2023/04/26 03:59:37;;;;;;;2.55;0.70;;;19.40;53.70;;;;;;5094709;28;20040;-71
2023/04/26 04:02:03;;;;;;;1.45;0.50;;;19.40;53.60;;;;;;5094301;28;20505;-71
2023/04/26 04:04:28;;;;;;;1.55;0.52;;;19.50;53.70;;;;;;5094827;28;20123;-71
2023/04/26 04:06:54;;;;;;;1.67;0.52;;;19.40;53.60;;;;;;5092594;28;20040;-71
2023/04/26 04:09:20;;;;;;;1.10;0.70;;;19.50;53.70;;;;;;5095266;28;20094;-71
2023/04/26 04:11:45;;;;;;;1.98;0.65;;;19.50;53.60;;;;;;5095137;28;20039;-71
2023/04/26 04:14:11;;;;;;;2.60;0.65;;;19.50;53.60;;;;;;5094025;28;20439;-71
2023/04/26 04:16:37;;;;;;;2.00;0.80;;;19.50;53.60;;;;;;5094939;28;20036;-71
2023/04/26 04:19:02;;;;;;;1.13;0.50;;;19.50;53.60;;;;;;5094683;28;20036;-71
2023/04/26 04:21:28;;;;;;;1.98;0.70;;;19.60;53.70;;;;;;5094407;28;20040;-72
2023/04/26 04:23:54;;;;;;;1.38;0.63;;;19.60;53.70;;;;;;5094066;28;20120;-71
2023/04/26 04:26:19;;;;;;;1.70;0.55;;;19.60;53.60;;;;;;5093852;28;20056;-71
2023/04/26 04:28:46;;;;;;;2.00;0.75;;;19.60;53.60;;;;;;5093807;28;20127;-72
2023/04/26 04:31:12;;;;;;;3.22;0.70;;;19.60;53.60;;;;;;5094038;28;20048;-72
2023/04/26 04:33:37;;;;;;;0.93;0.40;;;19.70;53.70;;;;;;5094898;28;20043;-72
2023/04/26 04:36:03;;;;;;;1.40;0.50;;;19.70;53.60;;;;;;5092303;28;20036;-72
2023/04/26 04:38:29;;;;;;;1.10;0.60;;;19.60;53.60;;;;;;5094587;28;20048;-72
2023/04/26 04:40:55;;;;;;;1.85;0.47;;;19.70;53.50;;;;;;5094188;28;20479;-72
2023/04/26 04:43:22;;;;;;;1.00;0.40;;;19.70;53.50;;;;;;5093710;28;20083;-72
2023/04/26 04:45:51;;;;;;;1.88;0.60;;;19.60;53.50;;;;;;5094221;28;20056;-72
2023/04/26 04:48:17;;;;;;;0.75;0.50;;;19.70;53.50;;;;;;5094322;28;20081;-72
2023/04/26 04:50:42;;;;;;;1.58;0.60;;;19.70;53.50;;;;;;5093633;28;20048;-72
2023/04/26 04:53:08;;;;;;;2.38;0.70;;;19.70;53.50;;;;;;5093998;28;20048;-72
2023/04/26 04:55:35;;;;;;;1.92;0.55;;;19.70;53.50;;;;;;5094059;28;20044;-72
2023/04/26 04:58:02;;;;;;;1.27;0.45;;;19.70;53.40;;;;;;5093174;28;20507;-72
2023/04/26 05:00:28;;;;;;;2.58;0.57;;;19.70;53.40;;;;;;5094193;28;20039;-72
2023/04/26 05:02:54;;;;;;;2.63;0.63;;;19.80;53.50;;;;;;5093502;28;20373;-73
2023/04/26 05:05:19;;;;;;;0.85;0.43;;;19.80;53.50;;;;;;5094204;28;20044;-73
2023/04/26 05:07:45;;;;;;;1.60;0.60;;;19.80;53.50;;;;;;5094040;28;20047;-69
2023/04/26 05:10:11;;;;;;;2.22;0.70;;;19.80;53.40;;;;;;5092865;28;20505;-67
2023/04/26 05:12:37;;;;;;;2.10;0.50;;;19.80;53.30;;;;;;5093771;28;20040;-66
2023/04/26 05:15:03;;;;;;;2.45;0.73;;;19.80;53.40;;;;;;5093535;28;20391;-67
2023/04/26 05:17:31;;;;;;;1.75;0.50;;;19.90;53.50;;;;;;5092682;28;20127;-67
2023/04/26 05:19:57;;;;;;;2.20;0.55;;;19.90;53.40;;;;;;5093631;28;20051;-67
2023/04/26 05:22:22;;;;;;;2.42;0.55;;;19.90;53.40;;;;;;5093794;28;20394;-67
2023/04/26 05:24:48;;;;;;;3.97;0.60;;;19.90;53.40;;;;;;5091340;28;20056;-67
2023/04/26 05:27:13;;;;;;;2.60;0.63;;;19.90;53.40;;;;;;5093254;28;20055;-67
2023/04/26 05:29:39;;;;;;;2.35;0.60;;;19.90;53.50;;;;;;5093795;28;20044;-67
2023/04/26 05:32:05;;;;;;;2.97;0.50;;;20.00;53.50;;;;;;5092526;28;20457;-67
2023/04/26 05:34:30;;;;;;;1.90;0.50;;;20.00;53.50;;;;;;5093707;28;20040;-67
2023/04/26 05:36:56;;;;;;;2.97;0.60;;;20.00;53.60;;;;;;5093027;28;20040;-66
2023/04/26 05:39:21;;;;;;;2.15;0.50;;;20.00;53.60;;;;;;5092820;28;20087;-67
2023/04/26 05:41:47;;;;;;;2.70;0.70;;;20.00;53.60;;;;;;5091443;28;20079;-66
2023/04/26 05:44:16;;;;;;;2.83;0.52;;;20.00;53.70;;;;;;5093049;28;20040;-68
2023/04/26 05:46:41;;;;;;;3.10;0.80;;;20.10;53.90;;;;;;5092754;28;20039;-67
2023/04/26 05:49:07;;;;;;;2.22;0.52;;;20.10;54.00;;;;;;5093134;28;20066;-67
2023/04/26 05:51:32;;;;;;;4.53;0.82;;;20.10;54.10;;;;;;5092094;28;20103;-67
2023/04/26 05:53:58;;;;;;;3.70;0.68;;;20.10;54.20;;;;;;5091631;28;20040;-67
2023/04/26 05:56:25;;;;;;;3.45;0.80;;;20.10;54.30;;;;;;5092739;28;20040;-67
2023/04/26 05:58:51;;;;;;;2.72;0.60;;;20.20;54.40;;;;;;5092384;28;20396;-67
2023/04/26 06:01:17;;;;;;;2.22;0.50;;;20.20;54.40;;;;;;5091745;28;20052;-68
2023/04/26 06:03:44;;;;;;;2.60;0.60;;;20.20;54.50;;;;;;5093114;28;20043;-69
2023/04/26 06:06:10;;;;;;;2.20;0.60;;;20.20;54.50;;;;;;5092153;28;20085;-69
2023/04/26 06:08:35;;;;;;;3.58;0.70;;;20.20;54.50;;;;;;5093062;28;20048;-69
2023/04/26 06:11:01;;;;;;;2.92;0.70;;;20.20;54.60;;;;;;5092542;28;20113;-68
2023/04/26 06:13:27;;;;;;;2.15;0.60;;;20.20;54.60;;;;;;5092091;28;20066;-68
2023/04/26 06:15:52;;;;;;;2.80;0.60;;;20.30;54.60;;;;;;5091519;28;20399;-68
2023/04/26 06:18:19;;;;;;;1.77;0.50;;;20.30;54.70;;;;;;5091100;28;20039;-69
2023/04/26 06:20:45;;;;;;;1.42;0.50;;;20.30;54.80;;;;;;5092018;28;20445;-69
2023/04/26 06:23:11;;;;;;;1.65;0.60;;;20.30;54.80;;;;;;5092402;28;20096;-69
2023/04/26 06:25:36;;;;;;;3.33;0.50;;;20.30;54.70;;;;;;5092609;28;20048;-71
2023/04/26 06:28:02;;;;;;;3.47;0.50;;;20.30;54.70;;;;;;5091547;28;20496;-65
2023/04/26 06:30:28;;;;;;;1.63;0.43;;;20.30;54.60;;;;;;5089495;28;20468;-66
2023/04/26 06:32:53;;;;;;;2.72;0.50;;;20.30;54.60;;;;;;5090943;28;20047;-69
2023/04/26 06:35:19;;;;;;;2.55;0.63;;;20.30;54.60;;;;;;5091050;28;20111;-66
2023/04/26 06:37:45;;;;;;;2.03;0.40;;;20.30;54.70;;;;;;5090815;28;20082;-67
2023/04/26 06:40:12;;;;;;;2.60;0.60;;;20.40;54.80;;;;;;5090138;28;20076;-66
2023/04/26 06:42:38;;;;;;;4.63;0.65;;;20.40;54.80;;;;;;5090534;28;20388;-66
2023/04/26 06:45:04;;;;;;;2.63;0.85;;;20.40;54.80;;;;;;5090496;28;20535;-66
2023/04/26 06:47:30;;;;;;;2.40;0.68;;;20.40;54.90;;;;;;5091555;28;20383;-67
2023/04/26 06:49:55;;;;;;;2.25;0.85;;;20.40;54.80;;;;;;5089812;28;20056;-67
2023/04/26 06:52:21;;;;;;;2.15;0.90;;;20.40;54.80;;;;;;5072148;28;20041;-66
2023/04/26 06:54:46;;;;;;;4.47;0.90;;;20.40;54.90;;;;;;5073525;28;20404;-67
2023/04/26 06:57:12;;;;;;;3.65;0.70;;;20.40;54.90;;;;;;5093831;28;20119;-66
2023/04/26 06:59:37;;;;;;;2.45;0.80;;;20.40;54.90;;;;;;5096191;28;20521;-67
2023/04/26 07:02:03;;;;;;;2.55;0.70;;;20.40;54.80;;;;;;5095708;28;20544;-67
2023/04/26 07:04:28;;;;;;;3.80;0.95;;;20.50;55.00;;;;;;5095469;28;20470;-69
2023/04/26 07:06:54;;;;;;;4.05;0.75;;;20.50;54.90;;;;;;5095807;28;20066;-66
2023/04/26 07:09:20;;;;;;;4.53;1.10;;;20.50;54.90;;;;;;5095330;28;20079;-66
2023/04/26 07:11:46;;;;;;;1.80;0.90;;;20.50;54.90;;;;;;5107948;28;20090;-65
2023/04/26 07:14:11;;;;;;;1.83;0.90;;;20.50;55.00;;;;;;5115985;28;20479;-68
2023/04/26 07:16:37;;;;;;;3.08;1.05;;;20.50;55.00;;;;;;5112950;28;20521;-66
2023/04/26 07:19:03;;;;;;;2.58;1.20;;;20.50;55.00;;;;;;5115305;28;20054;-66
2023/04/26 07:21:28;;;;;;;6.47;1.50;;;20.50;55.00;;;;;;5116717;28;20066;-65
2023/04/26 07:23:55;;;;;;;2.53;1.08;;;20.50;55.00;;;;;;5115270;28;20058;-66
2023/04/26 07:26:21;;;;;;;4.35;1.20;;;20.50;55.00;;;;;;5116722;28;20047;-66
2023/04/26 07:28:46;;;;;;;2.38;1.30;;;20.50;55.00;;;;;;5116301;28;20487;-65
2023/04/26 07:31:13;;;;;;;3.38;1.35;;;20.50;54.90;;;;;;5114736;28;20048;-65
2023/04/26 07:33:39;;;;;;;7.90;1.92;;;20.50;54.80;;;;;;5116302;28;20583;-66
2023/04/26 07:36:04;;;;;;;4.68;1.50;;;20.50;54.80;;;;;;5116200;28;20425;-67
2023/04/26 07:38:30;;;;;;;3.17;1.35;;;20.50;54.80;;;;;;5115183;28;20040;-67
2023/04/26 07:40:56;;;;;;;5.63;1.50;;;20.50;54.80;;;;;;5115381;28;20046;-66
2023/04/26 07:43:21;;;;;;;4.15;1.40;;;20.50;54.70;;;;;;5116146;28;20046;-67
2023/04/26 07:45:47;;;;;;;6.32;2.00;;;20.50;54.70;;;;;;5113032;28;20035;-66
2023/04/26 07:48:12;;;;;;;4.82;2.10;;;20.50;54.60;;;;;;5095076;28;20126;-67
2023/04/26 07:50:38;;;;;;;3.58;1.67;;;20.50;54.60;;;;;;5095295;28;20032;-67
2023/04/26 07:53:03;;;;;;;5.22;1.70;;;20.50;54.60;;;;;;5093924;28;20391;-66
2023/04/26 07:55:29;;;;;;;3.90;1.40;;;20.50;54.70;;;;;;5095264;28;20040;-66
2023/04/26 07:57:55;;;;;;;3.38;1.52;;;20.50;54.60;;;;;;5093619;28;20044;-67
2023/04/26 08:00:21;;;;;;;4.28;1.60;;;20.50;54.70;;;;;;5094299;28;20066;-66
2023/04/26 08:02:47;;;;;;;4.53;1.50;;;20.50;54.60;;;;;;5094612;28;20044;-67
2023/04/26 08:05:13;;;;;;;4.47;1.50;;;20.50;54.60;;;;;;5094276;28;20092;-67
2023/04/26 08:07:39;;;;;;;3.20;1.40;;;20.50;54.60;;;;;;5094424;28;20044;-67
2023/04/26 08:10:05;;;;;;;3.85;1.38;;;20.50;54.50;;;;;;5094988;28;20040;-67
2023/04/26 08:12:32;;;;;;;3.95;1.20;;;20.50;54.40;;;;;;5095244;28;20044;-67
2023/04/26 08:14:59;;;;;;;4.47;1.20;;;20.50;54.40;;;;;;5094208;28;20047;-67
2023/04/26 08:17:25;;;;;;;5.43;1.40;;;20.50;54.30;;;;;;5094975;28;20119;-67
2023/04/26 08:19:51;;;;;;;3.75;1.25;;;20.50;54.30;;;;;;5092932;28;20383;-67
2023/04/26 08:22:16;;;;;;;5.10;1.52;;;20.50;54.20;;;;;;5094721;28;20044;-67
2023/04/26 08:24:46;;;;;;;3.55;1.45;;;20.50;54.10;;;;;;5094684;28;20515;-68
2023/04/26 08:27:12;;;;;;;5.68;1.50;;;20.50;54.00;;;;;;5094005;28;20087;-67
2023/04/26 08:29:37;;;;;;;3.42;1.40;;;20.50;54.00;;;;;;5095027;28;20517;-67
2023/04/26 08:32:03;;;;;;;2.70;1.30;;;20.50;53.80;;;;;;5094457;28;20471;-67
2023/04/26 08:34:29;;;;;;;2.30;0.98;;;20.50;53.80;;;;;;5094340;28;20142;-67
2023/04/26 08:36:55;;;;;;;2.70;1.35;;;20.50;53.80;;;;;;5094050;28;20032;-66
2023/04/26 08:39:21;;;;;;;3.78;1.60;;;20.50;53.70;;;;;;5092516;28;20042;-68
2023/04/26 08:41:49;;;;;;;3.85;1.45;;;20.50;53.60;;;;;;5093709;28;20421;-68
2023/04/26 08:44:14;;;;;;;;;;;20.50;53.60;;;;;;5091763;28;20127;-66
2023/04/26 08:47:03;;;;;;;2.88;1.05;;;20.50;53.60;;;;;;5092728;28;20002;-67
2023/04/26 08:49:40;;;;;;;2.53;1.20;;;20.50;53.70;;;;;;5092226;28;20036;-67
2023/04/26 08:52:09;;;;;;;4.47;1.23;;;20.50;53.70;;;;;;5092791;28;20036;-67
2023/04/26 08:54:34;;;;;;;;;;;20.50;53.70;;;;;;5094583;28;20503;-68
2023/04/26 08:57:00;;;;;;;2.85;1.27;;;20.50;53.70;;;;;;5091887;28;19963;-67
2023/04/26 08:59:26;;;;;;;3.20;1.17;;;20.50;53.80;;;;;;5093261;28;20051;-67
2023/04/26 09:01:51;;;;;;;3.92;1.30;;;20.50;53.70;;;;;;5092788;28;20450;-67
2023/04/26 09:04:17;;;;;;;2.95;1.15;;;20.50;53.80;;;;;;5092066;28;20126;-67
2023/04/26 09:06:43;;;;;;;2.65;1.20;;;20.50;53.80;;;;;;5094184;28;20044;-67
2023/04/26 09:09:09;;;;;;;2.15;1.10;;;20.50;53.70;;;;;;5093376;28;20076;-67
2023/04/26 09:11:54;;;;;;;4.30;1.20;;;20.50;53.80;;;;;;5075969;28;20036;-67
2023/04/26 09:14:20;;;;;;;4.47;1.23;;;20.50;53.80;;;;;;5093859;28;20080;-67
2023/04/26 09:16:45;;;;;;;3.92;1.15;;;20.40;53.70;;;;;;5092276;28;20069;-68
2023/04/26 09:19:11;;;;;;;1.95;1.15;;;20.40;53.70;;;;;;5093683;28;20047;-68
2023/04/26 09:21:44;;;;;;;3.20;1.20;;;20.40;54.40;;;;;;5093756;28;20142;-68
2023/04/26 09:24:09;;;;;;;2.72;1.17;;;20.40;53.70;;;;;;5092495;28;20056;-67
2023/04/26 09:26:35;;;;;;;2.72;1.10;;;20.40;53.70;;;;;;5094093;28;20051;-67
2023/04/26 09:29:17;;;;;;;3.70;1.20;;;20.40;53.80;;;;;;5093602;28;20059;-66
2023/04/26 09:31:46;;;;;;;3.10;1.30;;;20.40;53.80;;;;;;5092814;28;20445;-66
2023/04/26 09:34:12;;;;;;;2.17;0.93;;;20.40;53.90;;;;;;5093546;28;20047;-66
2023/04/26 09:36:48;;;;;;;2.72;1.15;;;20.40;53.80;;;;;;5093828;28;20394;-66
2023/04/26 09:39:14;;;;;;;3.00;1.00;;;20.40;53.80;;;;;;5092611;28;20131;-66
2023/04/26 09:41:46;;;;;;;2.15;1.00;;;20.40;53.80;;;;;;5093599;28;20123;-67
2023/04/26 09:44:22;;;;;;;2.58;1.10;;;20.40;53.80;;;;;;5091240;28;20071;-67
2023/04/26 09:47:16;;;;;;;2.00;1.10;;;20.40;53.90;;;;;;5093471;28;20097;-66
2023/04/26 09:49:50;;;;;;;2.65;0.93;;;20.40;53.80;;;;;;5079355;28;20079;-68
2023/04/26 09:52:16;;;;;;;2.75;1.15;;;20.30;53.80;;;;;;5092093;28;20513;-69
2023/04/26 09:54:47;;;;;;;2.40;1.10;;;20.30;53.80;;;;;;5093282;28;20032;-67
2023/04/26 09:57:14;;;;;;;2.03;1.10;;;20.30;53.90;;;;;;5092795;28;20044;-67
2023/04/26 09:59:53;;;;;;;2.33;1.17;;;20.30;53.90;;;;;;5092406;28;20044;-68
2023/04/26 10:02:25;;;;;;;3.78;1.10;;;20.30;53.90;;;;;;5092828;28;20081;-67
2023/04/26 10:04:55;;;;;;;2.50;1.00;;;20.30;53.90;;;;;;5093327;28;20072;-68
2023/04/26 10:07:22;;;;;;;3.28;1.10;;;20.30;53.90;;;;;;5092306;28;20095;-68
2023/04/26 10:09:48;;;;;;;4.55;1.25;;;20.30;53.90;;;;;;5093009;28;20031;-68
2023/04/26 10:12:15;;;;;;;3.92;1.23;;;20.30;53.90;;;;;;5092281;28;20040;-67
2023/04/26 10:14:41;;;;;;;2.90;1.15;;;20.30;53.80;;;;;;5093283;28;20063;-64
2023/04/26 10:17:07;;;;;;;2.70;1.40;;;20.30;53.80;;;;;;5093282;28;20051;-64
2023/04/26 10:19:33;;;;;;;3.30;1.40;;;20.30;53.90;;;;;;5092160;28;20041;-65
2023/04/26 10:22:01;;;;;;;2.92;1.40;;;20.30;54.00;;;;;;5092167;28;20097;-65
2023/04/26 10:24:26;;;;;;;3.33;1.40;;;20.40;54.30;;;;;;5090117;28;20064;-65
2023/04/26 10:26:56;;;;;;;5.70;1.50;;;20.40;54.40;;;;;;5073283;28;20059;-69
2023/04/26 10:29:26;;;;;;;3.78;1.30;;;20.40;54.60;;;;;;5092094;28;20051;-64
2023/04/26 10:32:01;;;;;;;4.85;1.63;;;20.40;54.60;;;;;;5092324;28;20055;-65
2023/04/26 10:34:27;;;;;;;3.90;1.50;;;20.40;54.60;;;;;;5092132;28;20082;-65
2023/04/26 10:37:17;;;;;;;3.08;1.45;;;20.40;54.60;;;;;;5092758;28;20084;-65
2023/04/26 10:39:43;;;;;;;2.97;1.20;;;20.40;54.70;;;;;;5082375;28;20124;-65
2023/04/26 10:42:24;;;;;;;4.70;1.70;;;20.40;54.70;;;;;;5091847;28;20043;-65
2023/04/26 10:44:53;;;;;;;3.40;1.33;;;20.40;54.70;;;;;;5092960;28;20036;-65
2023/04/26 10:47:29;;;;;;;4.75;1.70;;;20.40;54.80;;;;;;5092543;28;20488;-65
2023/04/26 10:50:06;;;;;;;3.47;1.45;;;20.40;54.80;;;;;;5092290;28;20123;-64
2023/04/26 10:52:31;;;;;;;3.90;1.50;;;20.40;54.90;;;;;;5091865;28;20048;-63
2023/04/26 10:54:57;;;;;;;3.72;1.45;;;20.40;54.90;;;;;;5089109;28;20403;-65
2023/04/26 10:57:49;;;;;;;4.65;1.30;;;20.40;55.00;;;;;;5091425;28;20088;-64
2023/04/26 11:00:25;;;;;;;2.63;1.20;;;20.40;54.90;;;;;;5091138;28;20052;-65
2023/04/26 11:02:56;;;;;;;5.35;1.30;;;20.40;55.00;;;;;;5090699;28;20043;-65
2023/04/26 11:05:50;;;;;;;3.28;1.40;;;20.40;55.10;;;;;;5091633;28;20048;-65
2023/04/26 11:08:25;;;;;;;7.35;1.70;;;20.40;55.10;;;;;;5091103;28;20510;-65
2023/04/26 11:10:57;;;;;;;2.90;1.30;;;20.40;55.10;;;;;;5089671;28;20055;-65
2023/04/26 11:13:23;;;;;;;3.03;1.20;;;20.40;55.20;;;;;;5090644;28;20071;-65
2023/04/26 11:15:52;;;;;;;3.63;1.20;;;20.30;55.20;;;;;;5090418;28;20081;-65
2023/04/26 11:18:19;;;;;;;4.63;1.20;;;20.30;55.20;;;;;;5090937;28;20476;-65
2023/04/26 11:20:45;;;;;;;4.33;1.53;;;20.30;55.20;;;;;;5092226;28;20040;-65
2023/04/26 11:23:11;;;;;;;3.08;1.45;;;20.30;55.20;;;;;;5090425;28;20047;-65
2023/04/26 11:25:38;;;;;;;3.22;1.20;;;20.30;55.20;;;;;;5090755;28;20461;-65
2023/04/26 11:28:03;;;;;;;5.72;1.50;;;20.30;55.30;;;;;;5092118;28;20075;-64
2023/04/26 11:30:30;;;;;;;3.05;1.40;;;20.30;55.20;;;;;;5089995;28;20078;-64
2023/04/26 11:32:57;;;;;;;3.35;1.23;;;20.20;55.20;;;;;;5091982;28;20059;-65
2023/04/26 11:35:23;;;;;;;3.92;1.30;;;20.20;55.20;;;;;;5092156;28;20048;-65
2023/04/26 11:37:50;;;;;;;4.15;1.30;;;20.20;55.20;;;;;;5090065;28;20083;-64
2023/04/26 11:40:16;;;;;;;3.08;1.10;;;20.20;55.10;;;;;;5091205;28;20503;-65
2023/04/26 11:42:45;;;;;;;3.50;1.20;;;20.20;55.10;;;;;;5093484;28;20071;-65
2023/04/26 11:45:11;;;;;;;5.50;1.17;;;20.20;55.20;;;;;;5079396;28;20044;-66
2023/04/26 11:47:36;;;;;;;2.97;1.00;;;20.20;55.10;;;;;;5095101;28;20046;-65
2023/04/26 11:50:02;;;;;;;5.30;1.25;;;20.20;55.30;;;;;;5094746;28;20036;-66
2023/04/26 11:52:28;;;;;;;3.00;1.38;;;20.10;55.20;;;;;;5093866;28;20134;-65
2023/04/26 11:55:05;;;;;;;3.35;1.25;;;20.10;55.10;;;;;;5095248;28;20479;-65
2023/04/26 11:57:31;;;;;;;3.92;1.23;;;20.10;55.10;;;;;;5106192;28;20043;-65
2023/04/26 12:00:10;;;;;;;4.50;1.20;;;20.10;55.10;;;;;;5113155;28;20475;-65
2023/04/26 12:02:36;;;;;;;3.25;1.23;;;20.10;55.10;;;;;;5115429;27;20075;-65
2023/04/26 12:05:02;;;;;;;4.18;1.20;;;20.10;55.00;;;;;;5113272;28;20444;-65
2023/04/26 12:07:36;;;;;;;4.10;1.30;;;20.10;55.10;;;;;;5115049;28;20403;-65
2023/04/26 12:10:15;;;;;;;3.88;1.17;;;20.10;55.10;;;;;;5098950;28;20087;-65
2023/04/26 12:12:50;;;;;;;2.63;1.10;;;20.20;55.10;;;;;;5094249;28;20421;-65
2023/04/26 12:15:17;;;;;;;2.47;1.17;;;20.10;55.10;;;;;;5093925;28;20083;-66
2023/04/26 12:17:55;;;;;;;1.92;1.05;;;20.20;55.20;;;;;;5095075;28;20055;-63
2023/04/26 12:20:28;;;;;;;3.78;1.40;;;20.20;55.00;;;;;;5093356;28;20048;-65
2023/04/26 12:23:11;;;;;;;2.97;1.33;;;20.20;55.00;;;;;;5095134;28;20040;-65
2023/04/26 12:25:38;;;;;;;2.03;1.20;;;20.20;54.90;;;;;;5094863;28;20055;-65
2023/04/26 12:28:13;;;;;;;4.45;1.33;;;20.20;54.70;;;;;;5093746;28;20061;-66
2023/04/26 12:30:39;;;;;;;3.58;1.30;;;20.20;54.50;;;;;;5091702;28;20105;-66
2023/04/26 12:33:05;;;;;;;3.20;1.20;;;20.20;54.30;;;;;;5093072;28;20480;-65
2023/04/26 12:35:31;;;;;;;5.00;1.40;;;20.20;54.20;;;;;;5092291;28;20100;-66
2023/04/26 12:37:59;;;;;;;4.03;1.42;;;20.20;54.30;;;;;;5093478;28;20032;-65
2023/04/26 12:40:25;;;;;;;3.42;1.70;;;20.30;54.30;;;;;;5092214;28;20054;-65
2023/04/26 12:42:50;;;;;;;4.35;1.20;;;20.30;54.30;;;;;;5094356;28;20490;-66
2023/04/26 12:45:19;;;;;;;4.43;1.90;;;20.30;54.60;;;;;;5093935;28;20040;-65
2023/04/26 12:47:45;;;;;;;4.75;1.40;;;20.40;54.70;;;;;;5093327;28;20040;-66